sensor_id;sensor_type;location;lat;lon;timestamp;P1;durP1;ratioP1;P2;durP2;ratioP2
26211;SDS011;13951;49.516;6.094;2023-03-01T00:01:45;4.80;;;3.23;;
26211;SDS011;13951;49.516;6.094;2023-03-01T00:04:18;3.27;;;2.20;;
26211;SDS011;13951;49.516;6.094;2023-03-01T00:06:50;4.07;;;3.07;;
26211;SDS011;13951;49.516;6.094;2023-03-01T00:09:23;5.40;;;2.67;;
26211;SDS011;13951;49.516;6.094;2023-03-01T00:11:56;4.27;;;3.20;;
26211;SDS011;13951;49.516;6.094;2023-03-01T00:14:29;2.80;;;2.03;;
26211;SDS011;13951;49.516;6.094;2023-03-01T00:17:01;5.57;;;4.10;;
26211;SDS011;13951;49.516;6.094;2023-03-01T00:19:34;4.33;;;3.50;;
26211;SDS011;13951;49.516;6.094;2023-03-01T00:22:07;2.90;;;2.37;;
26211;SDS011;13951;49.516;6.094;2023-03-01T00:24:40;3.20;;;2.70;;
26211;SDS011;13951;49.516;6.094;2023-03-01T00:27:12;3.87;;;2.70;;
26211;SDS011;13951;49.516;6.094;2023-03-01T00:29:45;3.47;;;2.57;;
26211;SDS011;13951;49.516;6.094;2023-03-01T00:32:18;3.33;;;2.03;;
26211;SDS011;13951;49.516;6.094;2023-03-01T00:34:51;4.10;;;2.57;;
26211;SDS011;13951;49.516;6.094;2023-03-01T00:37:27;2.93;;;2.33;;
26211;SDS011;13951;49.516;6.094;2023-03-01T00:40:00;3.47;;;2.50;;
26211;SDS011;13951;49.516;6.094;2023-03-01T00:42:33;3.57;;;2.90;;
26211;SDS011;13951;49.516;6.094;2023-03-01T00:45:06;6.40;;;3.50;;
26211;SDS011;13951;49.516;6.094;2023-03-01T00:47:39;6.13;;;2.67;;
26211;SDS011;13951;49.516;6.094;2023-03-01T00:50:12;3.60;;;2.67;;
26211;SDS011;13951;49.516;6.094;2023-03-01T00:52:45;4.10;;;2.67;;
26211;SDS011;13951;49.516;6.094;2023-03-01T00:55:18;5.30;;;3.60;;
26211;SDS011;13951;49.516;6.094;2023-03-01T00:57:51;4.03;;;2.60;;
26211;SDS011;13951;49.516;6.094;2023-03-01T01:00:24;7.27;;;3.53;;
26211;SDS011;13951;49.516;6.094;2023-03-01T01:03:00;6.07;;;3.20;;
26211;SDS011;13951;49.516;6.094;2023-03-01T01:05:34;4.37;;;2.67;;
26211;SDS011;13951;49.516;6.094;2023-03-01T01:08:07;3.83;;;2.60;;
26211;SDS011;13951;49.516;6.094;2023-03-01T01:10:39;4.63;;;2.47;;
26211;SDS011;13951;49.516;6.094;2023-03-01T01:13:12;8.80;;;3.20;;
26211;SDS011;13951;49.516;6.094;2023-03-01T01:15:45;6.33;;;2.87;;
26211;SDS011;13951;49.516;6.094;2023-03-01T01:18:18;6.13;;;3.03;;
26211;SDS011;13951;49.516;6.094;2023-03-01T01:20:51;4.27;;;2.90;;
26211;SDS011;13951;49.516;6.094;2023-03-01T01:23:24;6.10;;;3.53;;
26211;SDS011;13951;49.516;6.094;2023-03-01T01:25:56;6.80;;;3.57;;
26211;SDS011;13951;49.516;6.094;2023-03-01T01:28:29;4.70;;;3.10;;
26211;SDS011;13951;49.516;6.094;2023-03-01T01:31:03;5.17;;;3.10;;
26211;SDS011;13951;49.516;6.094;2023-03-01T01:33:37;6.43;;;3.10;;
26211;SDS011;13951;49.516;6.094;2023-03-01T01:36:10;5.67;;;3.00;;
26211;SDS011;13951;49.516;6.094;2023-03-01T01:38:43;4.43;;;3.00;;
26211;SDS011;13951;49.516;6.094;2023-03-01T01:41:16;9.53;;;3.43;;
26211;SDS011;13951;49.516;6.094;2023-03-01T01:44:10;5.13;;;3.03;;
26211;SDS011;13951;49.516;6.094;2023-03-01T01:49:40;5.00;;;3.40;;
26211;SDS011;13951;49.516;6.094;2023-03-01T01:52:21;8.27;;;3.90;;
26211;SDS011;13951;49.516;6.094;2023-03-01T01:54:58;5.67;;;3.20;;
26211;SDS011;13951;49.516;6.094;2023-03-01T02:00:23;6.43;;;3.47;;
26211;SDS011;13951;49.516;6.094;2023-03-01T02:03:02;5.23;;;3.23;;
26211;SDS011;13951;49.516;6.094;2023-03-01T02:08:15;5.17;;;3.10;;
26211;SDS011;13951;49.516;6.094;2023-03-01T02:10:50;3.90;;;3.13;;
26211;SDS011;13951;49.516;6.094;2023-03-01T02:13:25;5.05;;;3.75;;
26211;SDS011;13951;49.516;6.094;2023-03-01T02:16:02;4.33;;;3.00;;
26211;SDS011;13951;49.516;6.094;2023-03-01T02:18:37;5.27;;;3.30;;
26211;SDS011;13951;49.516;6.094;2023-03-01T02:21:20;6.40;;;3.27;;
26211;SDS011;13951;49.516;6.094;2023-03-01T02:24:13;8.30;;;3.77;;
26211;SDS011;13951;49.516;6.094;2023-03-01T02:26:52;4.57;;;2.70;;
26211;SDS011;13951;49.516;6.094;2023-03-01T02:29:27;4.47;;;3.17;;
26211;SDS011;13951;49.516;6.094;2023-03-01T02:32:01;7.90;;;3.43;;
26211;SDS011;13951;49.516;6.094;2023-03-01T02:34:36;4.57;;;2.63;;
26211;SDS011;13951;49.516;6.094;2023-03-01T02:37:10;7.20;;;3.40;;
26211;SDS011;13951;49.516;6.094;2023-03-01T02:39:47;5.33;;;3.23;;
26211;SDS011;13951;49.516;6.094;2023-03-01T02:42:22;6.40;;;3.50;;
26211;SDS011;13951;49.516;6.094;2023-03-01T02:44:58;6.47;;;3.87;;
26211;SDS011;13951;49.516;6.094;2023-03-01T02:47:31;7.87;;;3.30;;
26211;SDS011;13951;49.516;6.094;2023-03-01T02:50:33;6.00;;;3.92;;
26211;SDS011;13951;49.516;6.094;2023-03-01T02:53:00;8.70;;;5.40;;
26211;SDS011;13951;49.516;6.094;2023-03-01T02:55:40;6.97;;;4.00;;
26211;SDS011;13951;49.516;6.094;2023-03-01T02:58:13;7.40;;;3.80;;
26211;SDS011;13951;49.516;6.094;2023-03-01T03:00:46;5.07;;;3.57;;
26211;SDS011;13951;49.516;6.094;2023-03-01T03:03:21;6.53;;;4.23;;
26211;SDS011;13951;49.516;6.094;2023-03-01T03:05:54;4.13;;;2.77;;
26211;SDS011;13951;49.516;6.094;2023-03-01T03:08:27;4.00;;;3.23;;
26211;SDS011;13951;49.516;6.094;2023-03-01T03:11:00;5.97;;;3.80;;
26211;SDS011;13951;49.516;6.094;2023-03-01T03:13:33;5.57;;;3.33;;
26211;SDS011;13951;49.516;6.094;2023-03-01T03:16:06;6.80;;;4.00;;
26211;SDS011;13951;49.516;6.094;2023-03-01T03:18:39;5.50;;;3.90;;
26211;SDS011;13951;49.516;6.094;2023-03-01T03:21:12;6.97;;;4.50;;
26211;SDS011;13951;49.516;6.094;2023-03-01T03:23:45;9.83;;;4.07;;
26211;SDS011;13951;49.516;6.094;2023-03-01T03:26:18;6.80;;;3.60;;
26211;SDS011;13951;49.516;6.094;2023-03-01T03:28:51;6.70;;;3.97;;
26211;SDS011;13951;49.516;6.094;2023-03-01T03:31:24;5.23;;;3.53;;
26211;SDS011;13951;49.516;6.094;2023-03-01T03:33:57;7.43;;;3.23;;
26211;SDS011;13951;49.516;6.094;2023-03-01T03:36:31;3.90;;;3.03;;
26211;SDS011;13951;49.516;6.094;2023-03-01T03:39:03;5.77;;;3.50;;
26211;SDS011;13951;49.516;6.094;2023-03-01T03:41:37;7.63;;;3.87;;
26211;SDS011;13951;49.516;6.094;2023-03-01T03:44:10;5.97;;;3.80;;
26211;SDS011;13951;49.516;6.094;2023-03-01T03:46:43;6.73;;;3.60;;
26211;SDS011;13951;49.516;6.094;2023-03-01T03:49:16;6.53;;;3.53;;
26211;SDS011;13951;49.516;6.094;2023-03-01T03:51:48;7.17;;;3.57;;
26211;SDS011;13951;49.516;6.094;2023-03-01T03:54:21;6.83;;;3.60;;
26211;SDS011;13951;49.516;6.094;2023-03-01T03:56:54;7.53;;;3.77;;
26211;SDS011;13951;49.516;6.094;2023-03-01T03:59:26;6.33;;;3.40;;
26211;SDS011;13951;49.516;6.094;2023-03-01T04:01:59;4.60;;;3.47;;
26211;SDS011;13951;49.516;6.094;2023-03-01T04:04:32;8.33;;;4.30;;
26211;SDS011;13951;49.516;6.094;2023-03-01T04:07:05;5.57;;;3.83;;
26211;SDS011;13951;49.516;6.094;2023-03-01T04:09:37;6.30;;;3.80;;
26211;SDS011;13951;49.516;6.094;2023-03-01T04:12:10;7.40;;;3.70;;
26211;SDS011;13951;49.516;6.094;2023-03-01T04:14:43;5.83;;;3.80;;
26211;SDS011;13951;49.516;6.094;2023-03-01T04:17:16;8.40;;;4.30;;
26211;SDS011;13951;49.516;6.094;2023-03-01T04:19:51;6.30;;;3.47;;
26211;SDS011;13951;49.516;6.094;2023-03-01T04:22:23;6.70;;;4.30;;
26211;SDS011;13951;49.516;6.094;2023-03-01T04:25:01;7.03;;;4.03;;
26211;SDS011;13951;49.516;6.094;2023-03-01T04:27:35;5.67;;;4.00;;
26211;SDS011;13951;49.516;6.094;2023-03-01T04:30:08;6.13;;;4.30;;
26211;SDS011;13951;49.516;6.094;2023-03-01T04:32:42;5.30;;;3.57;;
26211;SDS011;13951;49.516;6.094;2023-03-01T04:35:15;8.93;;;4.00;;
26211;SDS011;13951;49.516;6.094;2023-03-01T04:37:48;7.17;;;4.40;;
26211;SDS011;13951;49.516;6.094;2023-03-01T04:40:21;8.23;;;4.73;;
26211;SDS011;13951;49.516;6.094;2023-03-01T04:42:54;8.10;;;4.17;;
26211;SDS011;13951;49.516;6.094;2023-03-01T04:45:27;5.83;;;3.40;;
26211;SDS011;13951;49.516;6.094;2023-03-01T04:48:00;6.40;;;3.70;;
26211;SDS011;13951;49.516;6.094;2023-03-01T04:50:33;7.37;;;4.47;;
26211;SDS011;13951;49.516;6.094;2023-03-01T04:53:06;6.87;;;3.80;;
26211;SDS011;13951;49.516;6.094;2023-03-01T04:55:39;8.60;;;4.43;;
26211;SDS011;13951;49.516;6.094;2023-03-01T04:58:12;7.53;;;4.80;;
26211;SDS011;13951;49.516;6.094;2023-03-01T05:00:45;9.23;;;4.77;;
26211;SDS011;13951;49.516;6.094;2023-03-01T05:03:17;6.93;;;4.30;;
26211;SDS011;13951;49.516;6.094;2023-03-01T05:05:51;3.03;;;2.57;;
26211;SDS011;13951;49.516;6.094;2023-03-01T05:08:24;11.98;;;7.65;;
26211;SDS011;13951;49.516;6.094;2023-03-01T05:10:57;8.93;;;5.00;;
26211;SDS011;13951;49.516;6.094;2023-03-01T05:13:30;6.80;;;4.50;;
26211;SDS011;13951;49.516;6.094;2023-03-01T05:16:03;8.37;;;4.97;;
26211;SDS011;13951;49.516;6.094;2023-03-01T05:18:37;6.73;;;3.93;;
26211;SDS011;13951;49.516;6.094;2023-03-01T05:21:11;7.67;;;4.23;;
26211;SDS011;13951;49.516;6.094;2023-03-01T05:23:48;10.03;;;5.37;;
26211;SDS011;13951;49.516;6.094;2023-03-01T05:26:21;8.13;;;5.07;;
26211;SDS011;13951;49.516;6.094;2023-03-01T05:28:59;11.63;;;7.00;;
26211;SDS011;13951;49.516;6.094;2023-03-01T05:31:33;11.20;;;5.90;;
26211;SDS011;13951;49.516;6.094;2023-03-01T05:34:05;9.43;;;4.10;;
26211;SDS011;13951;49.516;6.094;2023-03-01T05:36:38;8.83;;;5.03;;
26211;SDS011;13951;49.516;6.094;2023-03-01T05:39:11;9.07;;;4.60;;
26211;SDS011;13951;49.516;6.094;2023-03-01T05:41:44;8.53;;;4.77;;
26211;SDS011;13951;49.516;6.094;2023-03-01T05:44:17;6.93;;;4.67;;
26211;SDS011;13951;49.516;6.094;2023-03-01T05:46:49;7.20;;;4.70;;
26211;SDS011;13951;49.516;6.094;2023-03-01T05:49:23;8.27;;;5.43;;
26211;SDS011;13951;49.516;6.094;2023-03-01T05:51:56;12.53;;;5.67;;
26211;SDS011;13951;49.516;6.094;2023-03-01T05:54:28;9.37;;;5.13;;
26211;SDS011;13951;49.516;6.094;2023-03-01T05:57:01;9.17;;;5.43;;
26211;SDS011;13951;49.516;6.094;2023-03-01T05:59:34;7.53;;;4.10;;
26211;SDS011;13951;49.516;6.094;2023-03-01T06:02:07;9.53;;;5.43;;
26211;SDS011;13951;49.516;6.094;2023-03-01T06:04:39;9.73;;;5.10;;
26211;SDS011;13951;49.516;6.094;2023-03-01T06:07:12;11.17;;;5.20;;
26211;SDS011;13951;49.516;6.094;2023-03-01T06:09:45;7.80;;;4.43;;
26211;SDS011;13951;49.516;6.094;2023-03-01T06:12:18;11.33;;;4.90;;
26211;SDS011;13951;49.516;6.094;2023-03-01T06:14:51;9.87;;;5.97;;
26211;SDS011;13951;49.516;6.094;2023-03-01T06:17:24;11.30;;;4.73;;
26211;SDS011;13951;49.516;6.094;2023-03-01T06:19:56;7.57;;;4.43;;
26211;SDS011;13951;49.516;6.094;2023-03-01T06:22:29;7.97;;;5.00;;
26211;SDS011;13951;49.516;6.094;2023-03-01T06:25:02;9.70;;;4.83;;
26211;SDS011;13951;49.516;6.094;2023-03-01T06:27:36;10.40;;;5.43;;
26211;SDS011;13951;49.516;6.094;2023-03-01T06:30:09;12.93;;;5.93;;
26211;SDS011;13951;49.516;6.094;2023-03-01T06:32:43;7.80;;;4.57;;
26211;SDS011;13951;49.516;6.094;2023-03-01T06:35:17;9.50;;;5.63;;
26211;SDS011;13951;49.516;6.094;2023-03-01T06:37:51;11.83;;;5.90;;
26211;SDS011;13951;49.516;6.094;2023-03-01T06:40:23;8.60;;;4.63;;
26211;SDS011;13951;49.516;6.094;2023-03-01T06:42:57;6.47;;;3.10;;
26211;SDS011;13951;49.516;6.094;2023-03-01T06:45:31;13.37;;;6.00;;
26211;SDS011;13951;49.516;6.094;2023-03-01T06:48:04;10.83;;;6.10;;
26211;SDS011;13951;49.516;6.094;2023-03-01T06:50:38;8.80;;;4.97;;
26211;SDS011;13951;49.516;6.094;2023-03-01T06:53:11;10.67;;;5.27;;
26211;SDS011;13951;49.516;6.094;2023-03-01T06:55:44;8.17;;;4.43;;
26211;SDS011;13951;49.516;6.094;2023-03-01T06:58:16;10.77;;;6.40;;
26211;SDS011;13951;49.516;6.094;2023-03-01T07:00:50;11.37;;;4.90;;
26211;SDS011;13951;49.516;6.094;2023-03-01T07:03:23;12.83;;;5.63;;
26211;SDS011;13951;49.516;6.094;2023-03-01T07:05:56;10.33;;;5.83;;
26211;SDS011;13951;49.516;6.094;2023-03-01T07:08:29;9.60;;;5.47;;
26211;SDS011;13951;49.516;6.094;2023-03-01T07:11:01;8.27;;;4.90;;
26211;SDS011;13951;49.516;6.094;2023-03-01T07:13:35;10.77;;;5.70;;
26211;SDS011;13951;49.516;6.094;2023-03-01T07:16:08;9.30;;;5.57;;
26211;SDS011;13951;49.516;6.094;2023-03-01T07:18:41;11.63;;;6.43;;
26211;SDS011;13951;49.516;6.094;2023-03-01T07:21:14;9.27;;;5.63;;
26211;SDS011;13951;49.516;6.094;2023-03-01T07:23:48;10.90;;;5.30;;
26211;SDS011;13951;49.516;6.094;2023-03-01T07:26:21;9.03;;;4.93;;
26211;SDS011;13951;49.516;6.094;2023-03-01T07:28:58;10.10;;;4.47;;
26211;SDS011;13951;49.516;6.094;2023-03-01T07:31:32;7.50;;;4.27;;
26211;SDS011;13951;49.516;6.094;2023-03-01T07:34:05;11.67;;;5.77;;
26211;SDS011;13951;49.516;6.094;2023-03-01T07:36:38;8.63;;;5.00;;
26211;SDS011;13951;49.516;6.094;2023-03-01T07:39:11;10.13;;;5.43;;
26211;SDS011;13951;49.516;6.094;2023-03-01T07:41:44;9.90;;;5.77;;
26211;SDS011;13951;49.516;6.094;2023-03-01T07:44:17;11.47;;;6.43;;
26211;SDS011;13951;49.516;6.094;2023-03-01T07:46:50;10.80;;;5.87;;
26211;SDS011;13951;49.516;6.094;2023-03-01T07:49:24;10.90;;;5.23;;
26211;SDS011;13951;49.516;6.094;2023-03-01T07:51:58;10.90;;;6.33;;
26211;SDS011;13951;49.516;6.094;2023-03-01T07:54:31;10.07;;;5.60;;
26211;SDS011;13951;49.516;6.094;2023-03-01T07:57:04;7.53;;;4.73;;
26211;SDS011;13951;49.516;6.094;2023-03-01T07:59:37;11.13;;;6.20;;
26211;SDS011;13951;49.516;6.094;2023-03-01T08:02:10;9.77;;;6.00;;
26211;SDS011;13951;49.516;6.094;2023-03-01T08:04:43;13.60;;;8.13;;
26211;SDS011;13951;49.516;6.094;2023-03-01T08:07:16;14.67;;;7.20;;
26211;SDS011;13951;49.516;6.094;2023-03-01T08:09:48;11.37;;;6.23;;
26211;SDS011;13951;49.516;6.094;2023-03-01T08:12:21;10.87;;;5.67;;
26211;SDS011;13951;49.516;6.094;2023-03-01T08:14:54;12.70;;;5.37;;
26211;SDS011;13951;49.516;6.094;2023-03-01T08:17:27;13.80;;;6.23;;
26211;SDS011;13951;49.516;6.094;2023-03-01T08:19:59;13.80;;;5.93;;
26211;SDS011;13951;49.516;6.094;2023-03-01T08:22:32;12.30;;;5.97;;
26211;SDS011;13951;49.516;6.094;2023-03-01T08:25:05;13.93;;;5.70;;
26211;SDS011;13951;49.516;6.094;2023-03-01T08:27:38;9.97;;;5.50;;
26211;SDS011;13951;49.516;6.094;2023-03-01T08:30:11;8.30;;;5.17;;
26211;SDS011;13951;49.516;6.094;2023-03-01T08:32:44;12.47;;;5.60;;
26211;SDS011;13951;49.516;6.094;2023-03-01T08:35:17;12.07;;;6.40;;
26211;SDS011;13951;49.516;6.094;2023-03-01T08:37:50;10.10;;;4.40;;
26211;SDS011;13951;49.516;6.094;2023-03-01T08:40:22;11.47;;;6.03;;
26211;SDS011;13951;49.516;6.094;2023-03-01T08:42:55;10.13;;;6.10;;
26211;SDS011;13951;49.516;6.094;2023-03-01T08:45:29;12.27;;;6.30;;
26211;SDS011;13951;49.516;6.094;2023-03-01T08:48:02;10.70;;;5.10;;
26211;SDS011;13951;49.516;6.094;2023-03-01T08:50:35;11.73;;;6.43;;
26211;SDS011;13951;49.516;6.094;2023-03-01T08:53:08;12.97;;;6.23;;
26211;SDS011;13951;49.516;6.094;2023-03-01T08:55:40;11.17;;;5.57;;
26211;SDS011;13951;49.516;6.094;2023-03-01T08:58:13;10.43;;;6.33;;
26211;SDS011;13951;49.516;6.094;2023-03-01T09:00:46;13.97;;;7.10;;
26211;SDS011;13951;49.516;6.094;2023-03-01T09:03:19;6.30;;;3.07;;
26211;SDS011;13951;49.516;6.094;2023-03-01T09:05:52;11.07;;;6.13;;
26211;SDS011;13951;49.516;6.094;2023-03-01T09:08:25;12.00;;;6.27;;
26211;SDS011;13951;49.516;6.094;2023-03-01T09:10:58;12.73;;;7.23;;
26211;SDS011;13951;49.516;6.094;2023-03-01T09:13:35;13.60;;;6.40;;
26211;SDS011;13951;49.516;6.094;2023-03-01T09:16:08;12.10;;;5.70;;
26211;SDS011;13951;49.516;6.094;2023-03-01T09:18:41;9.93;;;5.93;;
26211;SDS011;13951;49.516;6.094;2023-03-01T09:21:14;14.23;;;6.23;;
26211;SDS011;13951;49.516;6.094;2023-03-01T09:23:56;13.47;;;6.77;;
26211;SDS011;13951;49.516;6.094;2023-03-01T09:26:31;12.60;;;6.87;;
26211;SDS011;13951;49.516;6.094;2023-03-01T09:29:05;14.97;;;7.70;;
26211;SDS011;13951;49.516;6.094;2023-03-01T09:31:38;10.27;;;5.93;;
26211;SDS011;13951;49.516;6.094;2023-03-01T09:34:11;12.03;;;6.13;;
26211;SDS011;13951;49.516;6.094;2023-03-01T09:36:44;17.60;;;9.48;;
26211;SDS011;13951;49.516;6.094;2023-03-01T09:39:16;10.47;;;6.60;;
26211;SDS011;13951;49.516;6.094;2023-03-01T09:41:56;10.70;;;5.57;;
26211;SDS011;13951;49.516;6.094;2023-03-01T09:47:40;13.80;;;8.07;;
26211;SDS011;13951;49.516;6.094;2023-03-01T09:50:20;10.10;;;5.00;;
26211;SDS011;13951;49.516;6.094;2023-03-01T09:55:43;11.77;;;6.00;;
26211;SDS011;13951;49.516;6.094;2023-03-01T10:00:59;9.70;;;5.57;;
26211;SDS011;13951;49.516;6.094;2023-03-01T10:03:57;12.60;;;6.97;;
26211;SDS011;13951;49.516;6.094;2023-03-01T10:06:55;4.97;;;3.17;;
26211;SDS011;13951;49.516;6.094;2023-03-01T10:09:34;11.83;;;5.83;;
26211;SDS011;13951;49.516;6.094;2023-03-01T10:12:11;15.20;;;7.13;;
26211;SDS011;13951;49.516;6.094;2023-03-01T10:17:56;12.27;;;6.20;;
26211;SDS011;13951;49.516;6.094;2023-03-01T10:20:50;14.63;;;8.90;;
26211;SDS011;13951;49.516;6.094;2023-03-01T10:23:25;15.57;;;7.87;;
26211;SDS011;13951;49.516;6.094;2023-03-01T10:31:43;11.17;;;6.37;;
26211;SDS011;13951;49.516;6.094;2023-03-01T10:34:31;10.47;;;6.37;;
26211;SDS011;13951;49.516;6.094;2023-03-01T10:39:54;14.87;;;8.73;;
26211;SDS011;13951;49.516;6.094;2023-03-01T10:42:29;16.33;;;9.90;;
26211;SDS011;13951;49.516;6.094;2023-03-01T10:45:34;16.87;;;8.47;;
26211;SDS011;13951;49.516;6.094;2023-03-01T10:50:51;12.50;;;6.97;;
26211;SDS011;13951;49.516;6.094;2023-03-01T10:53:40;13.80;;;7.30;;
26211;SDS011;13951;49.516;6.094;2023-03-01T10:56:15;14.37;;;6.60;;
26211;SDS011;13951;49.516;6.094;2023-03-01T10:58:58;14.57;;;7.40;;
26211;SDS011;13951;49.516;6.094;2023-03-01T11:01:34;8.63;;;4.23;;
26211;SDS011;13951;49.516;6.094;2023-03-01T11:04:10;14.37;;;7.97;;
26211;SDS011;13951;49.516;6.094;2023-03-01T11:06:45;11.53;;;6.53;;
26211;SDS011;13951;49.516;6.094;2023-03-01T11:09:32;11.47;;;6.67;;
26211;SDS011;13951;49.516;6.094;2023-03-01T11:12:15;11.27;;;6.97;;
26211;SDS011;13951;49.516;6.094;2023-03-01T11:14:54;8.80;;;5.83;;
26211;SDS011;13951;49.516;6.094;2023-03-01T11:17:28;12.37;;;6.60;;
26211;SDS011;13951;49.516;6.094;2023-03-01T11:22:55;12.57;;;7.33;;
26211;SDS011;13951;49.516;6.094;2023-03-01T11:25:39;11.50;;;6.70;;
26211;SDS011;13951;49.516;6.094;2023-03-01T11:28:16;10.63;;;6.57;;
26211;SDS011;13951;49.516;6.094;2023-03-01T11:30:53;11.43;;;6.87;;
26211;SDS011;13951;49.516;6.094;2023-03-01T11:33:50;13.43;;;6.60;;
26211;SDS011;13951;49.516;6.094;2023-03-01T11:36:31;12.63;;;6.93;;
26211;SDS011;13951;49.516;6.094;2023-03-01T11:39:39;13.13;;;7.40;;
26211;SDS011;13951;49.516;6.094;2023-03-01T11:45:43;12.73;;;6.97;;
26211;SDS011;13951;49.516;6.094;2023-03-01T11:51:48;13.48;;;8.63;;
26211;SDS011;13951;49.516;6.094;2023-03-01T11:54:53;12.63;;;7.30;;
26211;SDS011;13951;49.516;6.094;2023-03-01T12:00:39;12.63;;;7.00;;
26211;SDS011;13951;49.516;6.094;2023-03-01T12:07:00;14.43;;;8.03;;
26211;SDS011;13951;49.516;6.094;2023-03-01T12:12:36;14.80;;;7.97;;
26211;SDS011;13951;49.516;6.094;2023-03-01T12:18:34;10.87;;;7.07;;
26211;SDS011;13951;49.516;6.094;2023-03-01T12:26:56;13.03;;;6.90;;
26211;SDS011;13951;49.516;6.094;2023-03-01T12:29:52;13.57;;;7.50;;
26211;SDS011;13951;49.516;6.094;2023-03-01T12:33:04;12.60;;;7.30;;
26211;SDS011;13951;49.516;6.094;2023-03-01T12:39:03;11.57;;;7.57;;
26211;SDS011;13951;49.516;6.094;2023-03-01T12:42:01;14.70;;;7.33;;
26211;SDS011;13951;49.516;6.094;2023-03-01T12:50:42;13.70;;;7.60;;
26211;SDS011;13951;49.516;6.094;2023-03-01T12:56:06;10.70;;;6.87;;
26211;SDS011;13951;49.516;6.094;2023-03-01T12:58:57;13.68;;;9.32;;
26211;SDS011;13951;49.516;6.094;2023-03-01T13:08:14;10.93;;;7.13;;
26211;SDS011;13951;49.516;6.094;2023-03-01T13:10:54;11.77;;;7.57;;
26211;SDS011;13951;49.516;6.094;2023-03-01T13:13:32;11.17;;;7.10;;
26211;SDS011;13951;49.516;6.094;2023-03-01T13:16:21;11.67;;;6.97;;
26211;SDS011;13951;49.516;6.094;2023-03-01T13:19:21;14.63;;;7.77;;
26211;SDS011;13951;49.516;6.094;2023-03-01T13:21:58;14.10;;;7.67;;
26211;SDS011;13951;49.516;6.094;2023-03-01T13:24:35;15.60;;;9.30;;
26211;SDS011;13951;49.516;6.094;2023-03-01T13:29:59;11.70;;;7.67;;
26211;SDS011;13951;49.516;6.094;2023-03-01T13:32:39;10.00;;;6.20;;
26211;SDS011;13951;49.516;6.094;2023-03-01T13:37:52;11.23;;;6.70;;
26211;SDS011;13951;49.516;6.094;2023-03-01T13:43:31;13.97;;;9.00;;
26211;SDS011;13951;49.516;6.094;2023-03-01T13:46:20;12.43;;;7.10;;
26211;SDS011;13951;49.516;6.094;2023-03-01T13:48:54;11.87;;;7.17;;
26211;SDS011;13951;49.516;6.094;2023-03-01T13:51:29;12.20;;;6.53;;
26211;SDS011;13951;49.516;6.094;2023-03-01T13:54:03;10.87;;;6.40;;
26211;SDS011;13951;49.516;6.094;2023-03-01T13:56:36;12.83;;;6.93;;
26211;SDS011;13951;49.516;6.094;2023-03-01T13:59:13;12.10;;;7.00;;
26211;SDS011;13951;49.516;6.094;2023-03-01T14:01:52;10.47;;;5.77;;
26211;SDS011;13951;49.516;6.094;2023-03-01T14:04:30;10.30;;;6.07;;
26211;SDS011;13951;49.516;6.094;2023-03-01T14:07:08;13.10;;;8.07;;
26211;SDS011;13951;49.516;6.094;2023-03-01T14:09:42;12.50;;;7.17;;
26211;SDS011;13951;49.516;6.094;2023-03-01T14:12:22;13.93;;;6.70;;
26211;SDS011;13951;49.516;6.094;2023-03-01T14:17:50;13.20;;;6.77;;
26211;SDS011;13951;49.516;6.094;2023-03-01T14:20:29;10.57;;;6.20;;
26211;SDS011;13951;49.516;6.094;2023-03-01T14:23:09;10.13;;;5.70;;
26211;SDS011;13951;49.516;6.094;2023-03-01T14:25:52;11.52;;;6.88;;
26211;SDS011;13951;49.516;6.094;2023-03-01T14:28:28;11.33;;;6.70;;
26211;SDS011;13951;49.516;6.094;2023-03-01T14:31:02;11.50;;;6.83;;
26211;SDS011;13951;49.516;6.094;2023-03-01T14:33:57;13.47;;;7.40;;
26211;SDS011;13951;49.516;6.094;2023-03-01T14:36:31;12.30;;;7.40;;
26211;SDS011;13951;49.516;6.094;2023-03-01T14:39:16;11.07;;;6.43;;
26211;SDS011;13951;49.516;6.094;2023-03-01T14:41:50;11.40;;;6.37;;
26211;SDS011;13951;49.516;6.094;2023-03-01T14:44:23;13.63;;;6.70;;
26211;SDS011;13951;49.516;6.094;2023-03-01T14:46:57;12.00;;;6.70;;
26211;SDS011;13951;49.516;6.094;2023-03-01T14:49:30;8.57;;;5.50;;
26211;SDS011;13951;49.516;6.094;2023-03-01T14:52:05;10.27;;;6.00;;
26211;SDS011;13951;49.516;6.094;2023-03-01T14:57:15;10.77;;;5.70;;
26211;SDS011;13951;49.516;6.094;2023-03-01T14:59:54;11.03;;;5.67;;
26211;SDS011;13951;49.516;6.094;2023-03-01T15:02:30;9.63;;;6.50;;
26211;SDS011;13951;49.516;6.094;2023-03-01T15:05:04;10.33;;;6.20;;
26211;SDS011;13951;49.516;6.094;2023-03-01T15:07:40;12.07;;;6.57;;
26211;SDS011;13951;49.516;6.094;2023-03-01T15:10:22;12.50;;;7.72;;
26211;SDS011;13951;49.516;6.094;2023-03-01T15:13:13;10.83;;;6.50;;
26211;SDS011;13951;49.516;6.094;2023-03-01T15:16:01;9.07;;;6.03;;
26211;SDS011;13951;49.516;6.094;2023-03-01T15:18:38;13.70;;;6.87;;
26211;SDS011;13951;49.516;6.094;2023-03-01T15:21:28;11.37;;;5.77;;
26211;SDS011;13951;49.516;6.094;2023-03-01T15:26:53;8.97;;;5.20;;
26211;SDS011;13951;49.516;6.094;2023-03-01T15:29:33;13.63;;;5.75;;
26211;SDS011;13951;49.516;6.094;2023-03-01T15:32:24;12.80;;;8.50;;
26211;SDS011;13951;49.516;6.094;2023-03-01T15:38:29;12.60;;;6.80;;
26211;SDS011;13951;49.516;6.094;2023-03-01T15:41:03;11.27;;;6.20;;
26211;SDS011;13951;49.516;6.094;2023-03-01T15:43:42;10.80;;;6.03;;
26211;SDS011;13951;49.516;6.094;2023-03-01T15:46:20;15.60;;;5.60;;
26211;SDS011;13951;49.516;6.094;2023-03-01T15:52:27;11.97;;;6.90;;
26211;SDS011;13951;49.516;6.094;2023-03-01T15:55:19;11.30;;;6.30;;
26211;SDS011;13951;49.516;6.094;2023-03-01T16:00:33;11.20;;;6.10;;
26211;SDS011;13951;49.516;6.094;2023-03-01T16:03:06;13.53;;;7.53;;
26211;SDS011;13951;49.516;6.094;2023-03-01T16:05:41;13.53;;;5.47;;
26211;SDS011;13951;49.516;6.094;2023-03-01T16:08:14;13.87;;;6.97;;
26211;SDS011;13951;49.516;6.094;2023-03-01T16:10:47;10.60;;;6.53;;
26211;SDS011;13951;49.516;6.094;2023-03-01T16:13:23;12.10;;;7.57;;
26211;SDS011;13951;49.516;6.094;2023-03-01T16:16:00;10.13;;;6.17;;
26211;SDS011;13951;49.516;6.094;2023-03-01T16:18:36;15.33;;;6.37;;
26211;SDS011;13951;49.516;6.094;2023-03-01T16:21:11;12.10;;;5.87;;
26211;SDS011;13951;49.516;6.094;2023-03-01T16:23:51;10.20;;;5.60;;
26211;SDS011;13951;49.516;6.094;2023-03-01T16:26:24;12.13;;;5.87;;
26211;SDS011;13951;49.516;6.094;2023-03-01T16:28:57;8.87;;;5.07;;
26211;SDS011;13951;49.516;6.094;2023-03-01T16:31:30;5.43;;;4.13;;
26211;SDS011;13951;49.516;6.094;2023-03-01T16:34:03;9.90;;;5.93;;
26211;SDS011;13951;49.516;6.094;2023-03-01T16:36:39;13.07;;;5.63;;
26211;SDS011;13951;49.516;6.094;2023-03-01T16:39:14;9.40;;;6.32;;
26211;SDS011;13951;49.516;6.094;2023-03-01T16:41:48;14.47;;;6.53;;
26211;SDS011;13951;49.516;6.094;2023-03-01T16:44:21;10.13;;;6.03;;
26211;SDS011;13951;49.516;6.094;2023-03-01T16:46:54;13.77;;;6.50;;
26211;SDS011;13951;49.516;6.094;2023-03-01T16:49:26;9.17;;;4.40;;
26211;SDS011;13951;49.516;6.094;2023-03-01T16:51:59;10.37;;;5.87;;
26211;SDS011;13951;49.516;6.094;2023-03-01T16:54:32;10.17;;;5.57;;
26211;SDS011;13951;49.516;6.094;2023-03-01T16:57:04;9.47;;;6.10;;
26211;SDS011;13951;49.516;6.094;2023-03-01T16:59:37;10.90;;;6.20;;
26211;SDS011;13951;49.516;6.094;2023-03-01T17:02:10;9.33;;;5.37;;
26211;SDS011;13951;49.516;6.094;2023-03-01T17:04:44;10.67;;;5.53;;
26211;SDS011;13951;49.516;6.094;2023-03-01T17:07:17;11.33;;;6.07;;
26211;SDS011;13951;49.516;6.094;2023-03-01T17:09:50;11.37;;;5.80;;
26211;SDS011;13951;49.516;6.094;2023-03-01T17:12:23;11.17;;;5.87;;
26211;SDS011;13951;49.516;6.094;2023-03-01T17:14:55;11.27;;;5.70;;
26211;SDS011;13951;49.516;6.094;2023-03-01T17:17:31;10.43;;;5.90;;